createdAt,value
2022-12-01T00:01:19.058Z,5.00
2022-12-01T00:03:45.786Z,4.90
2022-12-01T00:06:15.876Z,4.90
2022-12-01T00:09:02.959Z,4.80
2022-12-01T00:11:29.878Z,4.80
2022-12-01T00:13:56.589Z,4.60
2022-12-01T00:16:23.305Z,4.60
2022-12-01T00:18:51.614Z,4.60
2022-12-01T00:21:20.774Z,4.40
2022-12-01T00:23:50.177Z,4.30
2022-12-01T00:26:18.312Z,4.20
2022-12-01T00:28:49.435Z,4.10
2022-12-01T00:31:16.311Z,4.10
2022-12-01T00:33:43.199Z,4.00
2022-12-01T00:36:10.197Z,3.90
2022-12-01T00:38:37.111Z,3.90
2022-12-01T00:41:04.519Z,3.90
2022-12-01T00:43:31.858Z,3.80
2022-12-01T00:45:58.880Z,3.70
2022-12-01T00:48:25.594Z,3.70
2022-12-01T00:50:53.460Z,3.60
2022-12-01T00:53:21.266Z,3.60
2022-12-01T00:55:48.061Z,3.60
2022-12-01T00:58:15.077Z,3.60
2022-12-01T01:00:43.140Z,3.60
2022-12-01T01:03:11.179Z,3.60
2022-12-01T01:05:39.543Z,3.60
2022-12-01T01:08:11.513Z,3.60
2022-12-01T01:10:39.630Z,3.50
2022-12-01T01:13:06.620Z,3.50
2022-12-01T01:15:33.799Z,3.50
2022-12-01T01:18:00.912Z,3.40
2022-12-01T01:20:28.034Z,3.40
2022-12-01T01:22:55.014Z,3.40
2022-12-01T01:25:22.681Z,3.40
2022-12-01T01:27:49.853Z,3.40
2022-12-01T01:30:17.037Z,3.40
2022-12-01T01:32:43.888Z,3.40
2022-12-01T01:35:10.730Z,3.50
2022-12-01T01:37:37.493Z,3.40
2022-12-01T01:40:04.757Z,3.30
2022-12-01T01:42:31.460Z,3.20
2022-12-01T01:44:59.274Z,3.20
2022-12-01T01:47:36.864Z,3.20
2022-12-01T01:50:09.959Z,3.20
2022-12-01T01:52:41.498Z,3.20
2022-12-01T01:55:09.169Z,3.20
2022-12-01T01:57:36.721Z,3.20
2022-12-01T02:00:09.717Z,3.20
2022-12-01T02:02:45.073Z,3.30
2022-12-01T02:05:22.599Z,3.30
2022-12-01T02:07:52.190Z,3.20
2022-12-01T02:10:22.643Z,3.00
2022-12-01T02:13:30.006Z,2.90
2022-12-01T02:16:09.159Z,3.00
2022-12-01T02:19:08.199Z,3.00
2022-12-01T02:21:48.138Z,2.90
2022-12-01T02:24:50.526Z,2.80
2022-12-01T02:27:29.596Z,2.60
2022-12-01T02:30:02.346Z,2.60
2022-12-01T02:32:50.216Z,2.60
2022-12-01T02:35:24.880Z,2.50
2022-12-01T02:38:40.594Z,2.60
2022-12-01T02:41:19.968Z,2.60
2022-12-01T02:44:20.392Z,2.60
2022-12-01T02:47:13.477Z,2.60
2022-12-01T02:49:55.121Z,2.70
2022-12-01T02:52:24.486Z,2.60
2022-12-01T02:54:53.153Z,2.60
2022-12-01T02:57:20.218Z,2.70
2022-12-01T02:59:52.531Z,2.70
2022-12-01T03:02:42.064Z,2.60
2022-12-01T03:05:26.351Z,2.60
2022-12-01T03:08:15.912Z,2.70
2022-12-01T03:10:59.415Z,2.70
2022-12-01T03:13:46.481Z,2.80
2022-12-01T03:16:27.353Z,2.70
2022-12-01T03:18:57.253Z,2.70
2022-12-01T03:21:32.490Z,2.70
2022-12-01T03:24:05.588Z,2.60
2022-12-01T03:26:35.401Z,2.60
2022-12-01T03:29:07.637Z,2.70
2022-12-01T03:31:41.173Z,2.70
2022-12-01T03:34:14.897Z,2.60
2022-12-01T03:36:56.618Z,2.60
2022-12-01T03:39:29.033Z,2.50
2022-12-01T03:42:18.328Z,2.40
2022-12-01T03:44:56.901Z,2.50
2022-12-01T03:47:26.650Z,2.50
2022-12-01T03:49:54.391Z,2.40
2022-12-01T03:52:49.503Z,2.30
2022-12-01T03:55:25.205Z,2.30
2022-12-01T03:58:10.366Z,2.20
2022-12-01T04:00:37.854Z,2.20
2022-12-01T04:03:05.634Z,2.20
2022-12-01T04:05:34.684Z,2.10
2022-12-01T04:08:01.740Z,2.20
2022-12-01T04:10:28.453Z,2.20
2022-12-01T04:12:59.390Z,2.30
2022-12-01T04:15:27.122Z,2.50
2022-12-01T04:17:54.259Z,2.50
2022-12-01T04:20:21.795Z,2.50
2022-12-01T04:22:48.983Z,2.50
2022-12-01T04:25:16.010Z,2.60
2022-12-01T04:27:42.777Z,2.60
2022-12-01T04:30:10.948Z,2.50
2022-12-01T04:32:42.745Z,2.40
2022-12-01T04:35:12.361Z,2.30
2022-12-01T04:37:39.646Z,2.30
2022-12-01T04:40:07.218Z,2.20
2022-12-01T04:42:34.187Z,2.30
2022-12-01T04:45:01.007Z,2.40
2022-12-01T04:47:27.716Z,2.50
2022-12-01T04:49:54.838Z,2.40
2022-12-01T04:52:21.612Z,2.40
2022-12-01T04:54:48.332Z,2.30
2022-12-01T04:57:15.184Z,2.30
2022-12-01T04:59:41.880Z,2.30
2022-12-01T05:02:08.626Z,2.30
2022-12-01T05:04:38.600Z,2.30
2022-12-01T05:07:05.409Z,2.30
2022-12-01T05:09:32.216Z,2.40
2022-12-01T05:11:58.987Z,2.30
2022-12-01T05:14:25.718Z,2.30
2022-12-01T05:16:52.510Z,2.20
2022-12-01T05:19:37.933Z,2.10
2022-12-01T05:22:04.706Z,2.00
2022-12-01T05:24:31.364Z,2.00
2022-12-01T05:26:58.198Z,2.10
2022-12-01T05:29:24.853Z,2.10
2022-12-01T05:31:51.653Z,2.10
2022-12-01T05:34:18.711Z,2.20
2022-12-01T05:36:45.402Z,2.20
2022-12-01T05:39:12.103Z,2.30
2022-12-01T05:41:39.067Z,2.20
2022-12-01T05:44:05.857Z,2.20
2022-12-01T05:46:32.648Z,2.10
2022-12-01T05:48:59.420Z,2.00
2022-12-01T05:51:26.125Z,2.00
2022-12-01T05:53:52.858Z,1.90
2022-12-01T05:56:19.814Z,1.90
2022-12-01T05:58:46.482Z,1.90
2022-12-01T06:01:13.138Z,1.90
2022-12-01T06:03:40.166Z,2.00
2022-12-01T06:06:06.991Z,2.10
2022-12-01T06:08:33.756Z,2.10
2022-12-01T06:11:00.734Z,2.00
2022-12-01T06:13:27.360Z,2.10
2022-12-01T06:16:02.936Z,2.10
2022-12-01T06:18:33.974Z,2.00
2022-12-01T06:21:01.136Z,1.90
2022-12-01T06:23:30.634Z,1.90
2022-12-01T06:25:58.296Z,1.80
2022-12-01T06:28:25.035Z,2.20
2022-12-01T06:30:51.818Z,1.80
2022-12-01T06:33:18.623Z,1.80
2022-12-01T06:35:45.330Z,1.90
2022-12-01T06:38:12.102Z,1.90
2022-12-01T06:40:38.781Z,1.90
2022-12-01T06:43:06.476Z,1.90
2022-12-01T06:45:33.452Z,1.90
2022-12-01T06:48:00.326Z,1.90
2022-12-01T06:50:27.033Z,1.90
2022-12-01T06:52:54.630Z,1.80
2022-12-01T06:55:21.743Z,1.80
2022-12-01T06:57:48.693Z,1.70
2022-12-01T07:00:16.326Z,1.80
2022-12-01T07:02:43.483Z,1.80
2022-12-01T07:05:10.552Z,1.80
2022-12-01T07:07:39.570Z,1.90
2022-12-01T07:10:07.376Z,1.90
2022-12-01T07:12:34.054Z,1.80
2022-12-01T07:15:01.657Z,1.80
2022-12-01T07:17:28.986Z,1.80
2022-12-01T07:19:55.818Z,1.80
2022-12-01T07:22:22.819Z,1.80
2022-12-01T07:24:49.702Z,1.80
2022-12-01T07:27:16.439Z,1.80
2022-12-01T07:29:43.442Z,1.80
2022-12-01T07:32:10.266Z,1.80
2022-12-01T07:34:36.929Z,1.90
2022-12-01T07:37:03.897Z,1.90
2022-12-01T07:39:30.546Z,1.90
2022-12-01T07:41:57.275Z,2.00
2022-12-01T07:44:24.009Z,2.00
2022-12-01T07:46:50.660Z,2.00
2022-12-01T07:49:17.346Z,2.10
2022-12-01T07:51:44.145Z,2.10
2022-12-01T07:54:11.310Z,2.10
2022-12-01T07:56:37.997Z,2.10
2022-12-01T07:59:04.930Z,2.30
2022-12-01T08:01:31.720Z,2.20
2022-12-01T08:03:59.379Z,2.20
2022-12-01T08:06:27.286Z,2.20
2022-12-01T08:08:54.074Z,2.10
2022-12-01T08:11:24.925Z,2.10
2022-12-01T08:13:52.593Z,2.10
2022-12-01T08:16:22.293Z,2.20
2022-12-01T08:18:49.114Z,2.20
2022-12-01T08:21:17.935Z,2.30
2022-12-01T08:23:44.840Z,2.30
2022-12-01T08:26:14.463Z,2.40
2022-12-01T08:28:42.203Z,2.40
2022-12-01T08:31:18.787Z,2.40
2022-12-01T08:33:46.997Z,2.30
2022-12-01T08:36:14.061Z,2.30
2022-12-01T08:38:44.364Z,2.40
2022-12-01T08:41:12.016Z,2.60
2022-12-01T08:46:29.358Z,2.70
2022-12-01T08:48:57.616Z,2.90
2022-12-01T08:51:25.885Z,3.00
2022-12-01T08:53:55.766Z,3.10
2022-12-01T08:56:25.784Z,3.10
2022-12-01T08:58:54.195Z,3.10
2022-12-01T09:01:21.917Z,3.10
2022-12-01T09:03:48.974Z,3.30
2022-12-01T09:06:20.735Z,3.40
2022-12-01T09:08:48.131Z,3.60
2022-12-01T09:11:17.521Z,3.90
2022-12-01T09:13:48.623Z,4.00
2022-12-01T09:16:18.799Z,3.90
2022-12-01T09:18:46.779Z,3.90
2022-12-01T09:21:25.937Z,3.90
2022-12-01T09:23:53.774Z,4.00
2022-12-01T09:26:21.110Z,4.00
2022-12-01T09:28:50.339Z,4.00
2022-12-01T09:31:18.479Z,4.00
2022-12-01T09:33:45.519Z,4.20
2022-12-01T09:36:12.954Z,4.30
2022-12-01T09:38:40.106Z,4.40
2022-12-01T09:41:19.255Z,4.50
2022-12-01T09:43:58.024Z,4.60
2022-12-01T09:46:32.875Z,4.70
2022-12-01T09:49:02.681Z,4.80
2022-12-01T09:51:31.073Z,5.20
2022-12-01T09:53:59.374Z,5.30
2022-12-01T09:56:29.177Z,5.50
2022-12-01T09:59:02.123Z,5.70
2022-12-01T10:01:38.218Z,5.70
2022-12-01T10:04:30.737Z,5.50
2022-12-01T10:07:03.361Z,6.00
2022-12-01T10:09:38.579Z,6.30
2022-12-01T10:12:17.630Z,6.30
2022-12-01T10:14:46.616Z,5.90
2022-12-01T10:17:45.579Z,6.00
2022-12-01T10:20:38.910Z,5.70
2022-12-01T10:23:12.975Z,5.50
2022-12-01T10:26:08.880Z,5.40
2022-12-01T10:29:20.664Z,5.30
2022-12-01T10:32:00.417Z,5.50
2022-12-01T10:34:31.979Z,5.70
2022-12-01T10:36:59.197Z,6.10
2022-12-01T10:39:30.618Z,6.20
2022-12-01T10:42:25.006Z,6.30
2022-12-01T10:44:54.950Z,6.50
2022-12-01T10:47:25.533Z,6.20
2022-12-01T10:49:53.108Z,6.20
2022-12-01T10:52:41.636Z,6.40
2022-12-01T10:55:23.194Z,6.60
2022-12-01T10:57:51.103Z,6.70
2022-12-01T11:00:58.148Z,6.70
2022-12-01T11:03:22.905Z,6.60
2022-12-01T11:05:58.875Z,6.90
2022-12-01T11:08:50.453Z,6.90
2022-12-01T11:11:39.841Z,6.80
2022-12-01T11:14:21.493Z,6.80
2022-12-01T11:16:50.372Z,6.90
2022-12-01T11:19:34.841Z,6.80
2022-12-01T11:22:18.267Z,6.90
2022-12-01T11:25:06.055Z,6.80
2022-12-01T11:27:37.810Z,6.80
2022-12-01T11:30:24.762Z,7.00
2022-12-01T11:33:03.568Z,9.40
2022-12-01T11:35:33.432Z,13.70
2022-12-01T11:38:28.736Z,16.70
2022-12-01T11:40:54.042Z,18.80
2022-12-01T11:43:33.209Z,20.00
2022-12-01T11:46:04.892Z,19.90
2022-12-01T11:48:36.625Z,20.40
2022-12-01T11:51:06.341Z,20.20
2022-12-01T11:53:41.567Z,20.40
2022-12-01T11:56:23.309Z,21.10
2022-12-01T11:58:59.561Z,21.80
2022-12-01T12:02:00.012Z,21.30
2022-12-01T12:04:45.293Z,22.00
2022-12-01T12:07:48.666Z,22.40
2022-12-01T12:10:47.279Z,22.90
2022-12-01T12:13:35.894Z,22.50
2022-12-01T12:16:32.050Z,22.40
2022-12-01T12:19:06.723Z,22.70
2022-12-01T12:21:54.383Z,23.20
2022-12-01T12:24:39.550Z,23.20
2022-12-01T12:27:23.692Z,22.40
2022-12-01T12:30:15.237Z,21.10
2022-12-01T12:32:55.726Z,19.20
2022-12-01T12:35:25.637Z,18.50
2022-12-01T12:37:58.383Z,16.70
2022-12-01T12:40:49.582Z,17.50
2022-12-01T12:43:36.209Z,16.40
2022-12-01T12:46:11.914Z,15.90
2022-12-01T12:48:57.280Z,16.20
2022-12-01T12:51:46.432Z,16.60
2022-12-01T12:54:23.806Z,17.60
2022-12-01T12:56:55.610Z,19.00
2022-12-01T12:59:29.066Z,19.20
2022-12-01T13:02:18.705Z,19.70
2022-12-01T13:04:58.262Z,20.10
2022-12-01T13:07:37.119Z,21.00
2022-12-01T13:10:16.241Z,21.90
2022-12-01T13:12:51.486Z,20.80
2022-12-01T13:15:21.255Z,20.00
2022-12-01T13:17:57.454Z,19.40
2022-12-01T13:20:28.681Z,19.00
2022-12-01T13:22:57.166Z,18.80
2022-12-01T13:25:29.820Z,18.80
2022-12-01T13:28:00.339Z,18.70
2022-12-01T13:30:27.747Z,18.70
2022-12-01T13:33:01.049Z,19.00
2022-12-01T13:35:37.885Z,19.40
2022-12-01T13:38:13.889Z,19.40
2022-12-01T13:40:41.807Z,19.60
2022-12-01T13:43:20.874Z,19.60
2022-12-01T13:45:49.388Z,19.10
2022-12-01T13:48:41.913Z,19.10
2022-12-01T13:51:08.647Z,19.20
2022-12-01T13:53:52.554Z,19.20
2022-12-01T13:56:22.439Z,19.20
2022-12-01T13:58:51.940Z,19.10
2022-12-01T14:01:22.302Z,18.60
2022-12-01T14:04:03.150Z,17.30
2022-12-01T14:06:36.015Z,15.50
2022-12-01T14:09:15.757Z,13.70
2022-12-01T14:11:59.093Z,12.50
2022-12-01T14:14:28.452Z,11.70
2022-12-01T14:16:58.534Z,11.10
2022-12-01T14:19:34.493Z,10.80
2022-12-01T14:22:02.414Z,10.60
2022-12-01T14:24:41.512Z,10.40
2022-12-01T14:27:11.866Z,10.30
2022-12-01T14:29:43.034Z,10.20
2022-12-01T14:32:09.723Z,9.90
2022-12-01T14:34:38.081Z,9.70
2022-12-01T14:37:23.088Z,9.60
2022-12-01T14:39:56.159Z,9.60
2022-12-01T14:42:47.347Z,9.60
2022-12-01T14:45:18.662Z,9.60
2022-12-01T14:47:52.166Z,9.90
2022-12-01T14:50:25.244Z,9.80
2022-12-01T14:53:02.311Z,9.60
2022-12-01T14:55:41.538Z,9.20
2022-12-01T14:58:21.405Z,9.00
2022-12-01T15:00:56.461Z,8.70
2022-12-01T15:03:30.504Z,8.50
2022-12-01T15:05:58.833Z,8.50
2022-12-01T15:08:58.229Z,8.50
2022-12-01T15:11:25.487Z,8.50
2022-12-01T15:13:55.106Z,8.40
2022-12-01T15:16:28.915Z,8.40
2022-12-01T15:18:56.074Z,8.50
2022-12-01T15:21:31.920Z,8.30
2022-12-01T15:24:19.426Z,8.30
2022-12-01T15:26:50.091Z,8.20
2022-12-01T15:29:24.809Z,8.20
2022-12-01T15:31:55.751Z,8.20
2022-12-01T15:34:36.159Z,8.20
2022-12-01T15:37:14.662Z,8.10
2022-12-01T15:40:00.296Z,8.00
2022-12-01T15:42:39.434Z,8.10
2022-12-01T15:45:15.719Z,8.10
2022-12-01T15:47:43.450Z,8.20
2022-12-01T15:50:42.649Z,8.20
2022-12-01T15:53:32.833Z,8.10
2022-12-01T15:56:02.908Z,7.80
2022-12-01T15:58:32.918Z,7.80
2022-12-01T16:01:02.814Z,7.70
2022-12-01T16:03:29.862Z,7.50
2022-12-01T16:05:57.938Z,7.50
2022-12-01T16:08:27.711Z,7.40
2022-12-01T16:11:14.272Z,7.40
2022-12-01T16:14:06.824Z,7.40
2022-12-01T16:16:40.597Z,7.30
2022-12-01T16:19:10.323Z,7.20
2022-12-01T16:21:50.577Z,7.20
2022-12-01T16:24:32.737Z,7.10
2022-12-01T16:27:02.109Z,6.90
2022-12-01T16:29:31.547Z,6.90
2022-12-01T16:32:26.701Z,7.00
2022-12-01T16:34:54.102Z,6.80
2022-12-01T16:37:22.180Z,6.80
2022-12-01T16:39:49.535Z,6.70
2022-12-01T16:42:18.759Z,6.70
2022-12-01T16:44:46.778Z,6.60
2022-12-01T16:47:24.377Z,6.60
2022-12-01T16:49:52.304Z,6.60
2022-12-01T16:52:43.653Z,6.60
2022-12-01T16:55:21.050Z,6.60
2022-12-01T16:57:47.851Z,6.70
2022-12-01T17:00:15.024Z,6.80
2022-12-01T17:02:41.886Z,6.80
2022-12-01T17:05:11.435Z,6.80
2022-12-01T17:07:38.729Z,6.90
2022-12-01T17:10:06.826Z,7.00
2022-12-01T17:12:33.475Z,6.90
2022-12-01T17:15:00.288Z,6.90
2022-12-01T17:17:29.095Z,7.00
2022-12-01T17:19:56.007Z,7.00
2022-12-01T17:22:22.826Z,7.00
2022-12-01T17:24:50.589Z,7.00
2022-12-01T17:27:17.957Z,7.10
2022-12-01T17:29:46.410Z,7.10
2022-12-01T17:32:14.287Z,7.20
2022-12-01T17:34:41.069Z,7.20
2022-12-01T17:37:07.956Z,7.20
2022-12-01T17:39:34.963Z,7.20
2022-12-01T17:42:01.664Z,7.30
2022-12-01T17:44:28.398Z,7.50
2022-12-01T17:46:55.324Z,7.40
2022-12-01T17:49:22.460Z,7.20
2022-12-01T17:51:49.163Z,7.20
2022-12-01T17:54:15.941Z,7.20
2022-12-01T17:56:42.821Z,7.20
2022-12-01T17:59:09.616Z,7.30
2022-12-01T18:01:36.764Z,7.20
2022-12-01T18:04:03.817Z,7.20
2022-12-01T18:06:30.514Z,7.20
2022-12-01T18:08:59.014Z,7.20
2022-12-01T18:11:26.392Z,7.20
2022-12-01T18:13:53.375Z,7.20
2022-12-01T18:16:26.044Z,7.20
2022-12-01T18:18:54.200Z,7.10
2022-12-01T18:21:22.830Z,7.00
2022-12-01T18:24:01.281Z,7.20
2022-12-01T18:26:29.715Z,7.20
2022-12-01T18:28:59.345Z,7.20
2022-12-01T18:31:27.521Z,7.10
2022-12-01T18:33:54.301Z,7.00
2022-12-01T18:36:23.871Z,7.00
2022-12-01T18:38:51.732Z,7.00
2022-12-01T18:41:19.162Z,6.90
2022-12-01T18:43:46.493Z,6.90
2022-12-01T18:46:15.641Z,6.90
2022-12-01T18:48:51.122Z,7.00
2022-12-01T18:51:19.400Z,7.10
2022-12-01T18:53:46.812Z,7.20
2022-12-01T18:56:15.430Z,7.30
2022-12-01T18:58:42.441Z,7.20
2022-12-01T19:01:21.123Z,7.00
2022-12-01T19:03:48.165Z,6.80
2022-12-01T19:06:15.369Z,6.80
2022-12-01T19:08:42.245Z,6.80
2022-12-01T19:11:09.093Z,6.80
2022-12-01T19:13:36.240Z,6.80
2022-12-01T19:16:11.291Z,6.70
2022-12-01T19:18:38.691Z,6.60
2022-12-01T19:21:07.423Z,6.70
2022-12-01T19:23:34.688Z,6.60
2022-12-01T19:26:06.043Z,6.70
2022-12-01T19:28:34.413Z,6.80
2022-12-01T19:31:05.479Z,6.90
2022-12-01T19:33:32.285Z,6.80
2022-12-01T19:36:08.837Z,6.70
2022-12-01T19:38:35.862Z,6.70
2022-12-01T19:41:03.232Z,6.70
2022-12-01T19:43:30.106Z,6.70
2022-12-01T19:45:56.807Z,6.70
2022-12-01T19:48:23.509Z,6.90
2022-12-01T19:50:50.214Z,7.00
2022-12-01T19:53:16.875Z,7.00
2022-12-01T19:55:43.587Z,7.00
2022-12-01T19:58:10.349Z,7.00
2022-12-01T20:00:37.153Z,6.90
2022-12-01T20:03:03.985Z,6.90
2022-12-01T20:05:32.454Z,6.80
2022-12-01T20:07:59.261Z,6.70
2022-12-01T20:10:26.008Z,6.70
2022-12-01T20:12:52.934Z,6.70
2022-12-01T20:15:19.786Z,6.90
2022-12-01T20:17:46.539Z,6.90
2022-12-01T20:20:13.484Z,6.90
2022-12-01T20:22:40.231Z,7.00
2022-12-01T20:25:09.068Z,6.90
2022-12-01T20:27:36.655Z,6.90
2022-12-01T20:30:03.553Z,6.80
2022-12-01T20:32:30.255Z,6.70
2022-12-01T20:34:57.027Z,6.80
2022-12-01T20:37:23.670Z,6.90
2022-12-01T20:39:50.471Z,7.00
2022-12-01T20:42:19.351Z,7.00
2022-12-01T20:44:46.365Z,6.90
2022-12-01T20:47:14.543Z,6.90
2022-12-01T20:49:41.307Z,6.80
2022-12-01T20:52:07.983Z,6.70
2022-12-01T20:54:34.891Z,6.70
2022-12-01T20:57:01.834Z,6.70
2022-12-01T20:59:28.888Z,6.70
2022-12-01T21:01:55.929Z,6.80
2022-12-01T21:04:23.066Z,6.80
2022-12-01T21:06:50.147Z,6.80
2022-12-01T21:09:18.158Z,6.80
2022-12-01T21:12:08.682Z,6.90
2022-12-01T21:15:01.812Z,6.90
2022-12-01T21:17:33.108Z,6.90
2022-12-01T21:20:31.100Z,6.90
2022-12-01T21:23:15.980Z,7.00
2022-12-01T21:25:43.642Z,7.10
2022-12-01T21:28:26.233Z,7.10
2022-12-01T21:31:02.198Z,7.20
2022-12-01T21:33:35.215Z,7.20
2022-12-01T21:36:06.876Z,7.30
2022-12-01T21:38:33.808Z,7.30
2022-12-01T21:41:14.920Z,7.30
2022-12-01T21:43:41.628Z,7.30
2022-12-01T21:46:15.455Z,7.40
2022-12-01T21:48:43.240Z,7.50
2022-12-01T21:51:19.797Z,7.30
2022-12-01T21:53:47.445Z,7.20
2022-12-01T21:56:23.888Z,6.90
2022-12-01T21:58:51.592Z,6.90
2022-12-01T22:01:32.099Z,6.80
2022-12-01T22:04:02.380Z,6.70
2022-12-01T22:06:42.528Z,6.80
2022-12-01T22:09:26.918Z,6.80
2022-12-01T22:11:56.387Z,6.90
2022-12-01T22:14:36.517Z,6.90
2022-12-01T22:17:06.498Z,7.00
2022-12-01T22:19:39.115Z,7.00
2022-12-01T22:22:08.920Z,7.10
2022-12-01T22:24:40.355Z,7.10
2022-12-01T22:27:19.347Z,7.10
2022-12-01T22:29:48.290Z,7.20
2022-12-01T22:32:14.961Z,7.20
2022-12-01T22:34:49.971Z,7.30
2022-12-01T22:37:52.938Z,7.20
2022-12-01T22:40:42.750Z,7.10
2022-12-01T22:43:21.564Z,7.10
2022-12-01T22:45:49.480Z,7.10
2022-12-01T22:48:28.765Z,7.00
2022-12-01T22:50:56.951Z,7.10
2022-12-01T22:53:30.217Z,7.20
2022-12-01T22:56:00.104Z,7.20
2022-12-01T22:58:40.718Z,7.20
2022-12-01T23:01:28.420Z,7.20
2022-12-01T23:04:20.199Z,7.30
2022-12-01T23:06:59.858Z,7.30
2022-12-01T23:09:36.286Z,7.30
2022-12-01T23:12:22.414Z,7.30
2022-12-01T23:14:54.294Z,7.30
2022-12-01T23:17:22.844Z,7.30
2022-12-01T23:19:51.555Z,7.40
2022-12-01T23:22:19.072Z,7.30
2022-12-01T23:24:46.190Z,7.30
2022-12-01T23:27:15.057Z,7.30
2022-12-01T23:29:41.796Z,7.30
2022-12-01T23:32:10.320Z,7.40
2022-12-01T23:34:37.118Z,7.50
2022-12-01T23:37:03.788Z,7.50
2022-12-01T23:39:34.732Z,7.50
2022-12-01T23:42:03.301Z,7.50
2022-12-01T23:44:45.183Z,7.50
2022-12-01T23:47:28.262Z,7.40
2022-12-01T23:50:02.323Z,7.40
2022-12-01T23:52:34.345Z,7.40
2022-12-01T23:55:02.013Z,7.40
2022-12-01T23:57:30.791Z,7.30
